createdAt,value
2022-08-05T00:01:35.753Z,9.75
2022-08-05T00:04:05.227Z,8.55
2022-08-05T00:06:35.883Z,12.35
2022-08-05T00:09:05.396Z,10.13
2022-08-05T00:11:49.608Z,8.52
2022-08-05T00:14:27.760Z,8.32
2022-08-05T00:16:56.140Z,8.90
2022-08-05T00:19:23.482Z,10.30
2022-08-05T00:21:52.051Z,11.65
2022-08-05T00:24:24.637Z,11.10
2022-08-05T00:26:58.675Z,8.43
2022-08-05T00:29:26.190Z,11.32
2022-08-05T00:32:13.530Z,11.35
2022-08-05T00:35:03.501Z,9.23
2022-08-05T00:37:50.890Z,8.93
2022-08-05T00:40:27.889Z,9.35
2022-08-05T00:42:58.261Z,10.77
2022-08-05T00:45:38.242Z,8.73
2022-08-05T00:48:09.310Z,11.05
2022-08-05T00:50:38.574Z,11.50
2022-08-05T00:53:16.055Z,11.43
2022-08-05T00:55:55.669Z,9.35
2022-08-05T00:58:27.563Z,8.95
2022-08-05T01:00:54.779Z,9.27
2022-08-05T01:03:22.611Z,8.00
2022-08-05T01:05:54.901Z,8.80
2022-08-05T01:08:40.291Z,8.65
2022-08-05T01:11:22.681Z,8.68
2022-08-05T01:14:28.727Z,7.63
2022-08-05T01:17:16.349Z,8.07
2022-08-05T01:20:01.204Z,7.80
2022-08-05T01:22:39.542Z,7.85
2022-08-05T01:25:40.077Z,7.22
2022-08-05T01:28:35.233Z,8.38
2022-08-05T01:31:12.596Z,8.13
2022-08-05T01:33:53.526Z,10.18
2022-08-05T01:36:28.130Z,8.70
2022-08-05T01:38:56.841Z,7.95
2022-08-05T01:41:33.751Z,7.68
2022-08-05T01:44:02.968Z,8.65
2022-08-05T01:46:42.716Z,7.82
2022-08-05T01:49:24.417Z,7.45
2022-08-05T01:51:59.173Z,11.02
2022-08-05T01:54:45.999Z,9.55
2022-08-05T01:58:12.657Z,10.55
2022-08-05T02:00:11.888Z,7.70
2022-08-05T02:02:51.101Z,6.20
2022-08-05T02:05:23.475Z,10.80
2022-08-05T02:08:00.061Z,9.15
2022-08-05T02:10:42.793Z,6.80
2022-08-05T02:13:16.860Z,8.82
2022-08-05T02:15:50.288Z,7.75
2022-08-05T02:18:35.209Z,8.18
2022-08-05T02:21:14.813Z,9.48
2022-08-05T02:23:47.548Z,9.40
2022-08-05T02:26:22.343Z,8.93
2022-08-05T02:28:50.650Z,9.10
2022-08-05T02:31:28.327Z,6.05
2022-08-05T02:34:01.529Z,9.32
2022-08-05T02:36:31.623Z,8.13
2022-08-05T02:39:00.515Z,6.88
2022-08-05T02:41:43.206Z,8.88
2022-08-05T02:44:17.969Z,8.00
2022-08-05T02:46:58.754Z,7.38
2022-08-05T02:49:37.162Z,6.88
2022-08-05T02:52:29.978Z,7.95
2022-08-05T02:55:01.705Z,7.25
2022-08-05T02:58:09.385Z,6.97
2022-08-05T03:00:20.676Z,5.97
2022-08-05T03:02:48.794Z,9.55
2022-08-05T03:05:16.554Z,7.68
2022-08-05T03:08:06.910Z,11.45
2022-08-05T03:10:35.798Z,11.23
2022-08-05T03:15:28.453Z,7.63
2022-08-05T03:17:57.856Z,10.93
2022-08-05T03:20:26.432Z,8.25
2022-08-05T03:22:57.189Z,11.93
2022-08-05T03:25:32.402Z,7.97
2022-08-05T03:28:03.640Z,7.88
2022-08-05T03:30:34.116Z,8.40
2022-08-05T03:33:06.333Z,9.43
2022-08-05T03:35:41.092Z,10.57
2022-08-05T03:38:11.825Z,7.00
2022-08-05T03:40:48.503Z,9.13
2022-08-05T03:44:08.957Z,9.25
2022-08-05T03:46:05.389Z,11.80
2022-08-05T03:48:36.798Z,9.63
2022-08-05T03:52:38.944Z,9.13
2022-08-05T03:55:50.266Z,9.75
2022-08-05T03:57:44.358Z,9.80
2022-08-05T04:00:16.054Z,8.40
2022-08-05T04:02:57.707Z,10.85
2022-08-05T04:05:27.845Z,9.35
2022-08-05T04:07:58.799Z,6.97
2022-08-05T04:10:37.180Z,12.13
2022-08-05T04:13:07.302Z,10.25
2022-08-05T04:15:36.298Z,9.20
2022-08-05T04:18:09.351Z,8.65
2022-08-05T04:20:37.007Z,9.82
2022-08-05T04:23:04.634Z,9.38
2022-08-05T04:25:56.737Z,9.50
2022-08-05T04:28:20.328Z,7.95
2022-08-05T04:30:57.904Z,22.20
2022-08-05T04:34:17.118Z,7.47
2022-08-05T04:36:38.444Z,7.35
2022-08-05T04:39:01.002Z,9.30
2022-08-05T04:41:36.596Z,8.95
2022-08-05T04:44:09.348Z,8.63
2022-08-05T04:46:37.745Z,9.57
2022-08-05T04:49:12.178Z,7.68
2022-08-05T04:51:43.310Z,8.38
2022-08-05T04:54:10.507Z,8.45
2022-08-05T04:56:39.669Z,11.68
2022-08-05T04:59:21.641Z,8.80
2022-08-05T05:02:07.118Z,10.43
2022-08-05T05:04:35.857Z,11.23
2022-08-05T05:07:05.400Z,10.00
2022-08-05T05:09:37.455Z,13.40
2022-08-05T05:12:06.213Z,10.80
2022-08-05T05:14:33.325Z,12.02
2022-08-05T05:17:03.714Z,11.45
2022-08-05T05:19:36.466Z,10.57
2022-08-05T05:22:23.991Z,10.88
2022-08-05T05:24:57.653Z,12.82
2022-08-05T05:27:45.820Z,8.98
2022-08-05T05:30:31.378Z,9.68
2022-08-05T05:33:15.803Z,13.43
2022-08-05T05:35:47.415Z,10.15
2022-08-05T05:38:27.073Z,13.60
2022-08-05T05:40:58.243Z,12.85
2022-08-05T05:43:57.154Z,10.60
2022-08-05T05:46:17.627Z,10.48
2022-08-05T05:48:48.277Z,9.75
2022-08-05T05:51:27.924Z,14.18
2022-08-05T05:53:58.948Z,11.48
2022-08-05T05:56:33.004Z,10.02
2022-08-05T05:59:07.811Z,12.93
2022-08-05T06:01:40.963Z,19.35
2022-08-05T06:04:25.103Z,12.70
2022-08-05T06:06:52.233Z,10.35
2022-08-05T06:09:24.713Z,9.18
2022-08-05T06:12:01.838Z,10.35
2022-08-05T06:14:34.879Z,10.38
2022-08-05T06:17:24.358Z,8.40
2022-08-05T06:19:56.630Z,11.20
2022-08-05T06:22:34.048Z,11.75
2022-08-05T06:25:59.224Z,8.35
2022-08-05T06:28:11.407Z,12.90
2022-08-05T06:30:39.595Z,12.18
2022-08-05T06:33:10.672Z,8.82
2022-08-05T06:36:05.758Z,8.38
2022-08-05T06:38:36.182Z,6.35
2022-08-05T06:41:05.110Z,10.93
2022-08-05T06:43:57.781Z,10.07
2022-08-05T06:46:19.090Z,9.63
2022-08-05T06:48:55.703Z,7.78
2022-08-05T06:51:29.744Z,9.05
2022-08-05T06:54:02.728Z,6.47
2022-08-05T06:56:34.096Z,8.45
2022-08-05T06:59:09.754Z,12.30
2022-08-05T07:01:40.881Z,8.50
2022-08-05T07:04:09.646Z,7.70
2022-08-05T07:06:36.953Z,9.45
2022-08-05T07:09:04.875Z,6.88
2022-08-05T07:11:37.288Z,8.23
2022-08-05T07:14:29.717Z,6.60
2022-08-05T07:18:08.177Z,7.85
2022-08-05T07:22:36.048Z,8.80
2022-08-05T07:25:55.683Z,7.20
2022-08-05T07:27:58.829Z,6.05
2022-08-05T07:30:33.420Z,7.35
2022-08-05T07:33:05.423Z,7.43
2022-08-05T07:36:03.567Z,6.60
2022-08-05T07:38:34.192Z,6.50
2022-08-05T07:42:08.677Z,6.47
2022-08-05T07:44:18.545Z,5.28
2022-08-05T07:46:49.595Z,8.02
2022-08-05T07:49:18.327Z,6.97
2022-08-05T07:51:53.560Z,6.88
2022-08-05T07:54:30.789Z,5.57
2022-08-05T07:57:17.575Z,5.13
2022-08-05T07:59:49.329Z,8.35
2022-08-05T08:02:17.833Z,6.07
2022-08-05T08:04:47.457Z,6.68
2022-08-05T08:07:14.898Z,6.00
2022-08-05T08:09:42.968Z,5.70
2022-08-05T08:12:29.712Z,5.75
2022-08-05T08:14:57.261Z,4.85
2022-08-05T08:17:30.459Z,8.13
2022-08-05T08:20:23.383Z,7.78
2022-08-05T08:22:51.012Z,8.35
2022-08-05T08:25:27.101Z,10.23
2022-08-05T08:28:05.320Z,5.10
2022-08-05T08:30:47.754Z,6.07
2022-08-05T08:33:17.486Z,7.90
2022-08-05T08:35:53.137Z,4.80
2022-08-05T08:38:35.469Z,6.30
2022-08-05T08:41:08.577Z,6.95
2022-08-05T08:45:18.522Z,5.30
2022-08-05T08:46:30.566Z,6.55
2022-08-05T08:49:17.300Z,7.28
2022-08-05T08:52:24.160Z,5.50
2022-08-05T08:54:53.558Z,9.13
2022-08-05T08:57:20.724Z,6.97
2022-08-05T08:59:51.178Z,7.22
2022-08-05T09:02:26.545Z,7.15
2022-08-05T09:05:16.653Z,5.07
2022-08-05T09:07:57.757Z,4.65
2022-08-05T09:10:27.087Z,6.55
2022-08-05T09:12:56.864Z,5.13
2022-08-05T09:15:31.652Z,5.88
2022-08-05T09:18:07.253Z,5.28
2022-08-05T09:20:41.757Z,7.20
2022-08-05T09:23:19.674Z,5.00
2022-08-05T09:26:02.798Z,6.75
2022-08-05T09:28:34.254Z,6.15
2022-08-05T09:31:22.366Z,9.82
2022-08-05T09:34:09.765Z,7.85
2022-08-05T09:36:55.279Z,6.07
2022-08-05T09:39:41.990Z,6.20
2022-08-05T09:42:24.017Z,6.53
2022-08-05T09:44:57.477Z,5.10
2022-08-05T09:47:55.388Z,4.45
2022-08-05T09:50:44.445Z,5.60
2022-08-05T09:53:22.671Z,5.68
2022-08-05T09:56:04.492Z,5.20
2022-08-05T09:58:32.247Z,5.78
2022-08-05T10:01:15.107Z,5.03
2022-08-05T10:04:03.196Z,4.70
2022-08-05T10:06:31.849Z,6.57
2022-08-05T10:09:27.286Z,11.57
2022-08-05T10:12:31.651Z,5.45
2022-08-05T10:15:21.668Z,5.68
2022-08-05T10:18:16.759Z,5.22
2022-08-05T10:20:57.008Z,11.73
2022-08-05T10:23:56.155Z,6.72
2022-08-05T10:26:17.866Z,4.43
2022-08-05T10:28:47.266Z,6.72
2022-08-05T10:32:47.404Z,4.63
2022-08-05T10:34:03.706Z,7.25
2022-08-05T10:36:37.597Z,7.70
2022-08-05T10:39:15.231Z,4.50
2022-08-05T10:42:03.336Z,6.60
2022-08-05T10:44:32.498Z,6.18
2022-08-05T10:47:26.419Z,5.03
2022-08-05T10:50:32.546Z,6.93
2022-08-05T10:53:01.069Z,6.13
2022-08-05T10:55:32.724Z,6.40
2022-08-05T10:58:11.283Z,5.47
2022-08-05T11:00:42.268Z,9.18
2022-08-05T11:03:25.349Z,4.43
2022-08-05T11:06:16.252Z,6.80
2022-08-05T11:09:32.438Z,5.03
2022-08-05T11:12:34.290Z,4.45
2022-08-05T11:16:00.174Z,4.90
2022-08-05T11:18:34.803Z,4.75
2022-08-05T11:21:11.398Z,6.18
2022-08-05T11:24:03.912Z,5.63
2022-08-05T11:26:38.028Z,5.18
2022-08-05T11:29:13.779Z,9.10
2022-08-05T11:31:58.123Z,5.30
2022-08-05T11:34:51.144Z,7.97
2022-08-05T11:38:26.339Z,5.57
2022-08-05T11:41:34.349Z,12.25
2022-08-05T11:44:12.821Z,5.95
2022-08-05T11:47:14.179Z,8.25
2022-08-05T11:49:49.712Z,5.20
2022-08-05T11:52:31.130Z,6.00
2022-08-05T11:55:07.527Z,4.78
2022-08-05T11:58:08.272Z,6.57
2022-08-05T12:00:30.359Z,6.30
2022-08-05T12:02:57.689Z,6.88
2022-08-05T12:05:36.265Z,7.70
2022-08-05T12:08:09.978Z,6.80
2022-08-05T12:10:45.225Z,6.03
2022-08-05T12:13:28.009Z,7.15
2022-08-05T12:16:18.916Z,5.30
2022-08-05T12:18:49.086Z,6.70
2022-08-05T12:21:31.934Z,5.78
2022-08-05T12:24:11.818Z,7.25
2022-08-05T12:26:44.006Z,7.07
2022-08-05T12:29:23.111Z,7.05
2022-08-05T12:31:54.798Z,6.82
2022-08-05T12:34:29.477Z,5.00
2022-08-05T12:37:00.484Z,5.30
2022-08-05T12:39:37.567Z,5.00
2022-08-05T12:42:17.258Z,6.22
2022-08-05T12:44:46.039Z,8.05
2022-08-05T12:47:26.530Z,22.08
2022-08-05T12:50:05.083Z,6.32
2022-08-05T12:52:39.425Z,5.93
2022-08-05T12:55:26.477Z,7.78
2022-08-05T12:58:49.662Z,5.07
2022-08-05T13:02:02.841Z,5.93
2022-08-05T13:03:41.354Z,5.88
2022-08-05T13:06:13.933Z,5.65
2022-08-05T13:08:50.790Z,7.47
2022-08-05T13:11:46.937Z,6.03
2022-08-05T13:14:19.490Z,6.95
2022-08-05T13:16:50.326Z,5.25
2022-08-05T13:19:17.761Z,5.05
2022-08-05T13:21:52.518Z,5.85
2022-08-05T13:24:27.760Z,5.85
2022-08-05T13:27:17.027Z,6.15
2022-08-05T13:29:59.475Z,4.55
2022-08-05T13:32:39.499Z,5.05
2022-08-05T13:35:10.249Z,6.68
2022-08-05T13:37:37.184Z,6.20
2022-08-05T13:40:27.456Z,5.80
2022-08-05T13:42:55.566Z,7.63
2022-08-05T13:45:22.709Z,8.05
2022-08-05T13:48:09.915Z,5.90
2022-08-05T13:50:44.931Z,7.03
2022-08-05T13:53:15.880Z,5.75
2022-08-05T13:55:50.154Z,9.50
2022-08-05T13:58:30.840Z,5.45
2022-08-05T14:00:58.526Z,5.15
2022-08-05T14:03:30.133Z,6.20
2022-08-05T14:06:25.426Z,5.15
2022-08-05T14:08:46.734Z,5.15
2022-08-05T14:11:20.886Z,7.00
2022-08-05T14:13:49.114Z,7.32
2022-08-05T14:16:22.560Z,4.85
2022-08-05T14:18:49.715Z,4.70
2022-08-05T14:22:07.385Z,5.95
2022-08-05T14:24:04.365Z,5.97
2022-08-05T14:26:39.027Z,5.30
2022-08-05T14:29:16.473Z,6.18
2022-08-05T14:32:03.884Z,7.93
2022-08-05T14:34:35.379Z,5.53
2022-08-05T14:37:04.434Z,5.15
2022-08-05T14:39:49.679Z,5.35
2022-08-05T14:42:21.805Z,6.10
2022-08-05T14:44:49.985Z,4.95
2022-08-05T14:47:17.579Z,5.63
2022-08-05T14:50:18.095Z,4.93
2022-08-05T14:52:57.851Z,5.38
2022-08-05T14:55:28.640Z,6.55
2022-08-05T14:58:11.995Z,5.30
2022-08-05T15:00:58.194Z,7.30
2022-08-05T15:03:26.867Z,5.22
2022-08-05T15:06:13.175Z,4.70
2022-08-05T15:09:01.310Z,5.90
2022-08-05T15:11:52.611Z,7.18
2022-08-05T15:14:35.753Z,6.53
2022-08-05T15:17:10.021Z,8.32
2022-08-05T15:19:56.205Z,6.32
2022-08-05T15:22:27.403Z,8.55
2022-08-05T15:24:56.229Z,8.80
2022-08-05T15:27:25.530Z,6.47
2022-08-05T15:29:54.275Z,6.95
2022-08-05T15:32:28.592Z,5.10
2022-08-05T15:34:57.022Z,6.50
2022-08-05T15:38:31.934Z,6.22
2022-08-05T15:41:03.178Z,8.43
2022-08-05T15:43:11.211Z,6.32
2022-08-05T15:45:46.873Z,6.75
2022-08-05T15:48:15.341Z,6.32
2022-08-05T15:50:43.839Z,7.18
2022-08-05T15:53:13.660Z,8.23
2022-08-05T15:56:01.324Z,6.75
2022-08-05T15:58:35.593Z,6.75
2022-08-05T16:01:16.131Z,11.23
2022-08-05T16:03:50.823Z,6.43
2022-08-05T16:06:19.940Z,6.00
2022-08-05T16:08:50.974Z,5.60
2022-08-05T16:11:20.851Z,5.35
2022-08-05T16:14:07.414Z,5.72
2022-08-05T16:16:36.323Z,6.00
2022-08-05T16:19:04.094Z,5.78
2022-08-05T16:22:00.241Z,6.38
2022-08-05T16:24:40.321Z,6.32
2022-08-05T16:27:07.368Z,8.38
2022-08-05T16:29:37.594Z,7.57
2022-08-05T16:32:09.504Z,6.55
2022-08-05T16:34:39.400Z,5.82
2022-08-05T16:38:03.006Z,6.35
2022-08-05T16:40:05.943Z,7.93
2022-08-05T16:42:35.460Z,5.13
2022-08-05T16:45:06.198Z,7.03
2022-08-05T16:47:54.889Z,6.38
2022-08-05T16:50:25.556Z,8.07
2022-08-05T16:52:52.657Z,6.85
2022-08-05T16:55:20.399Z,7.35
2022-08-05T16:57:53.201Z,6.47
2022-08-05T17:00:34.680Z,8.10
2022-08-05T17:03:09.266Z,10.05
2022-08-05T17:05:50.265Z,9.35
2022-08-05T17:08:36.763Z,10.10
2022-08-05T17:11:12.539Z,7.55
2022-08-05T17:13:41.529Z,7.40
2022-08-05T17:16:28.083Z,10.00
2022-08-05T17:18:56.341Z,6.63
2022-08-05T17:21:23.516Z,8.50
2022-08-05T17:24:04.997Z,8.10
2022-08-05T17:26:39.085Z,8.70
2022-08-05T17:29:10.042Z,8.00
2022-08-05T17:31:56.943Z,13.80
2022-08-05T17:34:30.064Z,6.90
2022-08-05T17:37:00.540Z,10.68
2022-08-05T17:39:33.598Z,6.65
2022-08-05T17:42:17.633Z,9.75
2022-08-05T17:44:51.179Z,13.40
2022-08-05T17:47:23.680Z,13.02
2022-08-05T17:50:04.077Z,9.35
2022-08-05T17:52:52.585Z,9.27
2022-08-05T17:55:27.473Z,9.02
2022-08-05T17:58:02.276Z,7.82
2022-08-05T18:00:29.803Z,12.13
2022-08-05T18:02:57.310Z,14.32
2022-08-05T18:05:36.053Z,12.80
2022-08-05T18:08:03.657Z,16.08
2022-08-05T18:10:32.100Z,11.18
2022-08-05T18:13:01.905Z,12.52
2022-08-05T18:15:35.141Z,10.90
2022-08-05T18:18:10.844Z,11.15
2022-08-05T18:20:38.482Z,11.52
2022-08-05T18:23:11.442Z,10.38
2022-08-05T18:25:45.553Z,9.00
2022-08-05T18:28:16.400Z,12.50
2022-08-05T18:30:51.500Z,12.73
2022-08-05T18:33:22.608Z,12.15
2022-08-05T18:36:03.424Z,14.88
2022-08-05T18:38:36.042Z,10.45
2022-08-05T18:41:55.542Z,11.90
2022-08-05T18:43:51.758Z,12.93
2022-08-05T18:46:19.733Z,7.32
2022-08-05T18:48:51.834Z,10.93
2022-08-05T18:52:04.015Z,10.95
2022-08-05T18:54:31.176Z,13.55
2022-08-05T18:57:02.536Z,14.32
2022-08-05T18:59:43.059Z,8.82
2022-08-05T19:02:27.142Z,8.77
2022-08-05T19:05:02.532Z,13.70
2022-08-05T19:07:45.886Z,12.65
2022-08-05T19:10:14.680Z,13.20
2022-08-05T19:12:43.128Z,14.40
2022-08-05T19:15:57.909Z,12.55
2022-08-05T19:18:09.288Z,13.85
2022-08-05T19:20:41.392Z,11.18
2022-08-05T19:24:03.878Z,16.48
2022-08-05T19:26:02.193Z,13.20
2022-08-05T19:28:34.772Z,12.50
2022-08-05T19:31:04.938Z,12.60
2022-08-05T19:33:36.808Z,17.25
2022-08-05T19:36:05.912Z,14.40
2022-08-05T19:38:37.198Z,13.30
2022-08-05T19:41:07.054Z,16.33
2022-08-05T19:44:06.256Z,20.90
2022-08-05T19:46:29.698Z,12.68
2022-08-05T19:49:03.625Z,16.60
2022-08-05T19:52:04.324Z,14.80
2022-08-05T19:54:31.481Z,13.80
2022-08-05T19:57:06.839Z,15.23
2022-08-05T19:59:54.686Z,14.68
2022-08-05T20:02:28.167Z,15.43
2022-08-05T20:04:58.829Z,15.13
2022-08-05T20:07:46.646Z,17.50
2022-08-05T20:10:16.642Z,15.90
2022-08-05T20:12:47.807Z,14.60
2022-08-05T20:15:23.246Z,16.30
2022-08-05T20:18:10.936Z,16.70
2022-08-05T20:20:56.738Z,16.83
2022-08-05T20:23:39.472Z,17.55
2022-08-05T20:26:15.328Z,16.63
2022-08-05T20:28:45.349Z,17.83
2022-08-05T20:31:12.831Z,13.27
2022-08-05T20:33:42.295Z,16.10
2022-08-05T20:36:10.079Z,15.70
2022-08-05T20:38:40.878Z,15.27
2022-08-05T20:41:26.820Z,15.20
2022-08-05T20:44:17.074Z,13.20
2022-08-05T20:46:47.767Z,13.05
2022-08-05T20:49:15.137Z,13.35
2022-08-05T20:51:53.451Z,13.57
2022-08-05T20:54:20.819Z,12.75
2022-08-05T20:56:48.952Z,12.77
2022-08-05T20:59:26.589Z,13.85
2022-08-05T21:01:57.215Z,12.13
2022-08-05T21:04:26.998Z,11.85
2022-08-05T21:06:54.903Z,12.25
2022-08-05T21:09:22.916Z,10.88
2022-08-05T21:12:11.014Z,11.55
2022-08-05T21:14:38.946Z,16.73
2022-08-05T21:17:06.245Z,13.50
2022-08-05T21:19:47.139Z,12.38
2022-08-05T21:22:23.272Z,12.65
2022-08-05T21:24:52.586Z,13.05
2022-08-05T21:27:25.013Z,12.05
2022-08-05T21:29:56.342Z,13.75
2022-08-05T21:32:26.894Z,15.57
2022-08-05T21:35:18.436Z,18.25
2022-08-05T21:37:53.167Z,13.10
2022-08-05T21:40:24.742Z,13.55
2022-08-05T21:42:53.934Z,14.20
2022-08-05T21:45:56.360Z,13.95
2022-08-05T21:48:11.441Z,12.43
2022-08-05T21:50:42.111Z,13.35
2022-08-05T21:53:21.222Z,13.52
2022-08-05T21:56:05.209Z,15.70
2022-08-05T21:58:42.049Z,14.95
2022-08-05T22:01:10.627Z,16.17
2022-08-05T22:03:51.899Z,15.02
2022-08-05T22:06:22.631Z,12.27
2022-08-05T22:08:51.999Z,14.38
2022-08-05T22:11:34.577Z,13.60
2022-08-05T22:14:34.068Z,14.90
2022-08-05T22:16:52.571Z,13.98
2022-08-05T22:20:00.389Z,18.63
2022-08-05T22:22:10.754Z,16.92
2022-08-05T22:24:57.558Z,12.38
2022-08-05T22:28:04.873Z,14.15
2022-08-05T22:30:32.425Z,13.63
2022-08-05T22:33:04.113Z,12.98
2022-08-05T22:35:48.649Z,15.38
2022-08-05T22:38:17.297Z,13.30
2022-08-05T22:40:49.878Z,14.07
2022-08-05T22:43:36.567Z,15.38
2022-08-05T22:46:12.291Z,16.90
2022-08-05T22:48:43.837Z,14.85
2022-08-05T22:51:15.647Z,14.02
2022-08-05T22:53:50.222Z,17.00
2022-08-05T22:56:30.430Z,13.85
2022-08-05T22:59:03.256Z,15.32
2022-08-05T23:01:50.655Z,15.82
2022-08-05T23:04:18.975Z,13.73
2022-08-05T23:06:46.191Z,15.77
2022-08-05T23:09:27.723Z,14.35
2022-08-05T23:12:02.173Z,15.40
2022-08-05T23:14:32.142Z,16.63
2022-08-05T23:17:24.013Z,16.98
2022-08-05T23:20:02.232Z,14.38
2022-08-05T23:22:30.854Z,15.60
2022-08-05T23:24:58.051Z,16.00
2022-08-05T23:27:31.302Z,14.63
2022-08-05T23:30:10.738Z,17.70
2022-08-05T23:32:37.939Z,22.10
2022-08-05T23:35:12.466Z,15.57
2022-08-05T23:37:39.468Z,19.20
2022-08-05T23:40:09.429Z,18.40
2022-08-05T23:42:37.383Z,17.50
2022-08-05T23:45:14.104Z,15.82
2022-08-05T23:47:48.009Z,14.52
2022-08-05T23:50:17.104Z,15.10
2022-08-05T23:52:49.493Z,17.70
2022-08-05T23:55:17.115Z,17.65
2022-08-05T23:57:44.428Z,14.80
